Greenford, United Kingdom
Current Conditions -  °F | °C
As of 9:50 AM on Thursday 29 Jan 2015 (Local Time) from EGWU Reporting Station
Scattered Clouds Scattered Clouds  
Wind Chill: 28°   Ceiling: Unl
Heat Index: 37°   Visibility: 6mi
Dew Point: 32°   Wind: 16mph
Humidity: 81%   Direction: 250°WSW
Pressure: 29.12"   Gusts: NA
Location:  51.54°N, 0.34°W
Report Text: EGWU 290950Z 25014KT 9999 FEW012 SCT015 03/00 Q0986 WHT TEMPO FEW015 BLU
Loading
Personal Weather Stations






























Interactive Weather Map New forecast layout! Learn more

10-Day Weather Forecast

Advertisements
Track Severe Weather on mobile